CheckWX is a tool to help pilots better visualize weather data.  It is not intended as a substitute for an official pre-flight weather briefing.

04:34:20 UTC

KMIA METAR
Miami International Airport
Miami, Florida, USA
Current

41 mins ago

KMIA 240353Z 00000KT 10SM FEW043 SCT170 BKN250 26/24 A3002 RMK AO2 SLP164 T02610239 $
Observed
Jul-24 @ 03:53 UTC
Visibility
10 SM
Flight Rules
VFR
Cloud Levels
  • Few at 4,300' AGL
  • Scattered at 17,000' AGL
  • Broken at 25,000' AGL
Temperature
26°C / 79°F
Dewpoint
24°C / 75°F
Humidity
89%
Altimeter
30.02" Hg
Pressure
1016.62 hPa
Previous

2 hours ago

KMIA 240253Z COR 00000KT 10SM FEW030 SCT043 BKN170 BKN250 26/24 A3001 RMK AO2 SLP160 CB MOV NE T02720250 51014 $
Observed
Jul-24 @ 02:53 UTC
Visibility
10 SM
Flight Rules
VFR
Cloud Levels
  • Few at 3,000' AGL
  • Scattered at 4,300' AGL
  • Broken at 17,000' AGL
  • Broken at 25,000' AGL
Temperature
26°C / 79°F
Dewpoint
25°C / 77°F
Humidity
94%
Altimeter
30.01" Hg
Pressure
1016.22 hPa
Previous

2 hours ago

KMIA 240216Z 17006KT 10SM FEW030CB FEW050 BKN250 27/25 A2999 RMK AO2 CB SE MOV NE CB DSNT SE MOV NE T02720250 $
Observed
Jul-24 @ 02:16 UTC
Wind
  • 170° at 6 KTS
Visibility
10 SM
Flight Rules
VFR
Cloud Levels
  • Few at 3,000' AGL
  • Few at 5,000' AGL
  • Broken at 25,000' AGL
Temperature
27°C / 81°F
Dewpoint
25°C / 77°F
Heat Index
31°C / 88°F
Humidity
89%
Altimeter
29.99" Hg
Pressure
1015.62 hPa